Time;durP1;ratioP1;P1;durP2;ratioP2;P2;SDS_P1;SDS_P2;PMS_P1;PMS_P2;Temp;Humidity;BMP_temperature;BMP_pressure;BME280_temperature;BME280_humidity;BME280_pressure;Samples;Min_cycle;Max_cycle;Signal;HPM_P1;HPM_P2
2024/04/18 00:02:00;;;;;;;6.43;4.40;;;7.10;99.90;;;;;;5406481;26;20579;-69
2024/04/18 00:04:27;;;;;;;4.40;4.00;;;7.10;99.90;;;;;;5406204;26;20445;-68
2024/04/18 00:06:52;;;;;;;4.83;3.90;;;7.00;99.90;;;;;;5403871;26;20231;-68
2024/04/18 00:09:18;;;;;;;4.47;4.07;;;7.10;99.90;;;;;;5406324;26;20549;-68
2024/04/18 00:11:43;;;;;;;4.77;4.37;;;7.30;99.90;;;;;;5406306;26;20534;-68
2024/04/18 00:14:09;;;;;;;4.10;3.70;;;7.30;99.90;;;;;;5405761;26;20405;-69
2024/04/18 00:16:34;;;;;;;6.30;5.10;;;7.40;99.90;;;;;;5405614;26;20233;-67
2024/04/18 00:19:00;;;;;;;5.00;4.50;;;7.50;99.90;;;;;;5405765;26;20559;-69
2024/04/18 00:21:25;;;;;;;5.20;3.80;;;7.60;99.90;;;;;;5405440;26;20282;-68
2024/04/18 00:23:54;;;;;;;6.13;4.80;;;7.60;99.90;;;;;;5405558;26;20328;-68
2024/04/18 00:26:20;;;;;;;3.93;3.33;;;7.60;99.90;;;;;;5405440;26;20280;-68
2024/04/18 00:28:45;;;;;;;4.60;3.97;;;7.50;99.90;;;;;;5403125;26;20962;-68
2024/04/18 00:31:11;;;;;;;4.67;4.00;;;7.60;99.90;;;;;;5404822;26;20226;-67
2024/04/18 00:33:36;;;;;;;4.63;4.10;;;7.40;99.90;;;;;;5405519;26;20262;-67
2024/04/18 00:36:02;;;;;;;4.90;4.47;;;7.50;99.90;;;;;;5405270;26;20234;-68
2024/04/18 00:38:28;;;;;;;4.70;4.10;;;7.60;99.90;;;;;;5405142;26;20226;-69
2024/04/18 00:40:54;;;;;;;5.30;4.80;;;7.60;99.90;;;;;;5405593;26;20350;-68
2024/04/18 00:43:20;;;;;;;5.20;4.70;;;7.50;99.90;;;;;;5405325;26;20495;-68
2024/04/18 00:45:46;;;;;;;5.33;4.83;;;7.70;99.90;;;;;;5405452;26;20750;-68
2024/04/18 00:48:11;;;;;;;6.33;4.60;;;7.90;99.90;;;;;;5405025;26;20449;-68
2024/04/18 00:50:38;;;;;;;4.47;4.07;;;7.90;99.90;;;;;;5405337;26;20464;-68
2024/04/18 00:53:03;;;;;;;5.50;4.47;;;7.90;99.90;;;;;;5403845;26;20705;-67
2024/04/18 00:55:30;;;;;;;4.60;3.80;;;7.60;99.90;;;;;;5404619;26;20700;-67
2024/04/18 00:57:57;;;;;;;7.93;4.07;;;7.80;99.90;;;;;;5405040;26;20268;-70
2024/04/18 01:00:23;;;;;;;4.23;3.83;;;8.00;99.90;;;;;;5405010;26;20515;-68
2024/04/18 01:02:49;;;;;;;3.47;3.17;;;8.00;99.90;;;;;;5403367;26;20529;-69
2024/04/18 01:05:14;;;;;;;4.77;4.33;;;8.00;99.90;;;;;;5405047;26;20564;-68
2024/04/18 01:07:40;;;;;;;4.40;4.00;;;8.10;99.90;;;;;;5404807;26;20234;-68
2024/04/18 01:10:06;;;;;;;4.50;3.93;;;8.20;99.90;;;;;;5404316;26;20238;-69
2024/04/18 01:12:31;;;;;;;6.30;4.93;;;8.20;99.90;;;;;;5404949;26;21060;-68
2024/04/18 01:14:57;;;;;;;6.40;5.43;;;8.00;99.90;;;;;;5404877;26;20437;-68
2024/04/18 01:17:22;;;;;;;6.10;5.17;;;8.00;99.90;;;;;;5404642;26;20227;-68
2024/04/18 01:19:48;;;;;;;4.20;3.77;;;8.00;99.90;;;;;;5405008;26;20331;-68
2024/04/18 01:22:13;;;;;;;3.93;3.50;;;8.00;99.90;;;;;;5404270;26;20573;-67
2024/04/18 01:24:39;;;;;;;3.63;3.33;;;8.10;99.90;;;;;;5404743;26;20226;-68
2024/04/18 01:27:04;;;;;;;3.10;2.80;;;8.10;99.90;;;;;;5404263;26;20237;-68
2024/04/18 01:29:30;;;;;;;3.10;2.83;;;8.10;99.90;;;;;;5404721;26;20256;-69
2024/04/18 01:31:56;;;;;;;3.77;3.20;;;8.10;99.90;;;;;;5404397;26;20243;-68
2024/04/18 01:34:21;;;;;;;3.57;3.27;;;8.20;99.90;;;;;;5402960;26;20223;-67
2024/04/18 01:36:48;;;;;;;4.10;3.40;;;8.20;99.90;;;;;;5404457;26;20229;-68
2024/04/18 01:39:13;;;;;;;3.87;3.20;;;8.30;99.90;;;;;;5402987;26;20223;-68
2024/04/18 01:41:39;;;;;;;3.03;2.70;;;8.30;99.90;;;;;;5404480;26;20493;-68
2024/04/18 01:44:06;;;;;;;3.30;2.93;;;8.30;99.90;;;;;;5404254;26;20227;-68
2024/04/18 01:46:32;;;;;;;3.90;3.33;;;8.30;99.90;;;;;;5404843;26;21051;-68
2024/04/18 01:48:58;;;;;;;3.70;3.37;;;8.30;99.90;;;;;;5404310;26;20524;-68
2024/04/18 01:51:23;;;;;;;3.30;3.00;;;8.30;99.90;;;;;;5404695;26;20217;-68
2024/04/18 01:53:49;;;;;;;3.90;3.53;;;8.30;99.90;;;;;;5404166;26;20267;-68
2024/04/18 01:56:14;;;;;;;3.60;3.23;;;8.30;99.90;;;;;;5404337;26;20575;-68
2024/04/18 01:58:40;;;;;;;3.53;3.23;;;8.20;99.90;;;;;;5404061;26;20232;-68
2024/04/18 02:01:05;;;;;;;4.93;3.90;;;8.20;99.90;;;;;;5404434;26;20558;-68
2024/04/18 02:03:31;;;;;;;4.73;3.53;;;8.20;99.90;;;;;;5404152;26;20224;-69
2024/04/18 02:05:57;;;;;;;4.23;3.80;;;8.20;99.90;;;;;;5403950;26;20620;-68
2024/04/18 02:08:22;;;;;;;4.73;3.33;;;8.30;99.90;;;;;;5404062;26;20323;-69
2024/04/18 02:10:52;;;;;;;3.63;3.03;;;8.20;99.90;;;;;;5404160;26;20223;-67
2024/04/18 02:13:18;;;;;;;3.23;2.93;;;8.20;99.90;;;;;;5373754;26;20231;-68
2024/04/18 02:15:44;;;;;;;3.60;3.30;;;8.20;99.90;;;;;;5404261;26;20498;-69
2024/04/18 02:18:09;;;;;;;3.73;3.23;;;8.10;99.90;;;;;;5403702;26;20232;-68
2024/04/18 02:20:35;;;;;;;3.83;3.43;;;8.10;99.90;;;;;;5404110;26;20223;-69
2024/04/18 02:23:00;;;;;;;2.50;2.30;;;8.00;99.90;;;;;;5403552;26;20219;-67
2024/04/18 02:25:26;;;;;;;3.07;2.80;;;8.10;99.90;;;;;;5403629;26;20238;-68
2024/04/18 02:27:51;;;;;;;3.43;3.13;;;8.10;99.90;;;;;;5403444;26;20378;-67
2024/04/18 02:30:17;;;;;;;4.60;3.90;;;8.10;99.90;;;;;;5403813;26;20330;-68
2024/04/18 02:32:42;;;;;;;5.27;3.80;;;8.10;99.90;;;;;;5403478;26;20372;-68
2024/04/18 02:35:08;;;;;;;3.80;3.40;;;8.20;99.90;;;;;;5403737;26;20265;-69
2024/04/18 02:41:03;;;;;;;3.73;3.27;;;8.10;99.90;;;;;;5403657;26;20265;-68
2024/04/18 02:43:29;;;;;;;3.63;3.30;;;8.10;99.90;;;;;;5403239;26;20439;-67
2024/04/18 02:45:55;;;;;;;3.20;2.90;;;8.20;99.90;;;;;;5403379;26;20582;-67
2024/04/18 02:48:20;;;;;;;4.13;2.77;;;8.20;99.90;;;;;;5403024;26;20233;-68
2024/04/18 02:50:46;;;;;;;4.37;3.67;;;8.20;99.90;;;;;;5403645;26;20222;-68
2024/04/18 02:53:12;;;;;;;4.30;3.40;;;8.20;99.90;;;;;;5403310;26;20565;-68
2024/04/18 02:55:37;;;;;;;3.77;3.47;;;8.10;99.90;;;;;;5401622;26;20274;-68
2024/04/18 02:58:03;;;;;;;2.73;2.53;;;8.00;99.90;;;;;;5402180;26;20291;-67
2024/04/18 03:00:29;;;;;;;2.50;2.30;;;8.00;99.90;;;;;;5403417;26;20264;-68
2024/04/18 03:02:54;;;;;;;2.60;2.40;;;7.90;99.90;;;;;;5403297;26;20215;-68
2024/04/18 03:05:20;;;;;;;3.20;2.83;;;7.70;99.90;;;;;;5403303;26;20448;-68
2024/04/18 03:07:45;;;;;;;3.17;2.87;;;7.80;99.90;;;;;;5403187;26;20235;-67
2024/04/18 03:10:11;;;;;;;2.67;2.10;;;7.90;99.90;;;;;;5403208;26;20777;-67
2024/04/18 03:12:36;;;;;;;2.17;1.97;;;8.00;99.90;;;;;;5400956;26;20640;-67
2024/04/18 03:15:03;;;;;;;2.70;2.50;;;8.00;99.90;;;;;;5403426;26;20227;-68
2024/04/18 03:17:28;;;;;;;2.27;2.07;;;8.10;99.90;;;;;;5402818;26;20625;-68
2024/04/18 03:19:54;;;;;;;3.40;3.10;;;8.10;99.90;;;;;;5404107;26;20491;-67
2024/04/18 03:22:20;;;;;;;2.77;2.57;;;8.10;99.90;;;;;;5403365;26;20644;-68
2024/04/18 03:24:46;;;;;;;2.20;2.00;;;8.00;99.90;;;;;;5402915;26;20521;-67
2024/04/18 03:27:12;;;;;;;4.30;2.93;;;7.90;99.90;;;;;;5403204;26;20535;-68
2024/04/18 03:29:37;;;;;;;5.13;2.90;;;7.90;99.90;;;;;;5402959;26;20220;-68
2024/04/18 03:32:03;;;;;;;3.90;3.30;;;8.00;99.90;;;;;;5403275;26;20215;-68
2024/04/18 03:34:29;;;;;;;4.80;3.13;;;7.90;99.90;;;;;;5402923;26;20614;-67
2024/04/18 03:36:55;;;;;;;3.87;3.30;;;7.90;99.90;;;;;;5402653;26;20592;-67
2024/04/18 03:39:20;;;;;;;3.27;2.97;;;7.50;99.90;;;;;;5403045;26;20518;-67
2024/04/18 03:41:49;;;;;;;4.50;4.07;;;7.70;99.90;;;;;;5402533;26;20730;-67
2024/04/18 03:44:15;;;;;;;3.03;2.80;;;7.70;99.90;;;;;;5402647;26;20776;-67
2024/04/18 03:46:40;;;;;;;3.70;3.40;;;7.70;99.90;;;;;;5403069;26;20541;-67
2024/04/18 03:49:09;;;;;;;3.20;2.90;;;7.80;99.90;;;;;;5402837;26;20815;-67
2024/04/18 03:51:34;;;;;;;4.77;3.40;;;8.00;99.90;;;;;;5402771;26;20324;-67
2024/04/18 03:54:00;;;;;;;3.10;2.90;;;7.90;99.90;;;;;;5402469;26;20453;-68
2024/04/18 03:56:26;;;;;;;3.40;2.53;;;7.90;99.90;;;;;;5402489;26;20334;-67
2024/04/18 03:58:52;;;;;;;2.90;2.63;;;7.80;99.90;;;;;;5401819;26;20544;-67
2024/04/18 04:01:18;;;;;;;4.00;2.80;;;7.60;99.90;;;;;;5399917;26;20264;-68
2024/04/18 04:03:44;;;;;;;4.10;3.70;;;7.60;99.90;;;;;;5402381;26;20451;-68
2024/04/18 04:06:09;;;;;;;5.60;5.10;;;7.50;99.90;;;;;;5401938;26;20789;-67
2024/04/18 04:08:35;;;;;;;5.80;5.20;;;7.50;99.90;;;;;;5402480;26;20230;-67
2024/04/18 04:11:00;;;;;;;6.13;5.63;;;7.40;99.90;;;;;;5402238;26;20227;-67
2024/04/18 04:13:26;;;;;;;7.50;6.87;;;7.50;99.90;;;;;;5402143;26;20326;-68
2024/04/18 04:15:51;;;;;;;6.67;6.07;;;7.50;99.90;;;;;;5401810;26;20291;-67
2024/04/18 04:18:17;;;;;;;7.70;6.90;;;7.50;99.90;;;;;;5400390;26;20229;-66
2024/04/18 04:20:44;;;;;;;5.93;5.43;;;7.50;99.90;;;;;;5401710;26;20295;-68
2024/04/18 04:23:09;;;;;;;6.00;5.50;;;7.40;99.90;;;;;;5401280;26;20288;-67
2024/04/18 04:25:35;;;;;;;6.07;5.53;;;7.50;99.90;;;;;;5401865;26;20444;-68
2024/04/18 04:28:01;;;;;;;7.00;6.30;;;7.60;99.90;;;;;;5403462;26;20231;-68
2024/04/18 04:30:27;;;;;;;6.93;6.23;;;7.30;99.90;;;;;;5405796;26;20528;-67
2024/04/18 04:32:52;;;;;;;6.30;5.70;;;7.40;99.90;;;;;;5405404;26;20247;-66
2024/04/18 04:35:18;;;;;;;6.20;5.70;;;7.40;99.90;;;;;;5405646;26;20250;-68
2024/04/18 04:37:43;;;;;;;7.30;6.60;;;7.40;99.90;;;;;;5405040;26;20261;-68
2024/04/18 04:40:09;;;;;;;7.20;6.60;;;7.60;99.90;;;;;;5405377;26;20223;-68
2024/04/18 04:42:34;;;;;;;7.53;6.93;;;7.70;99.90;;;;;;5405250;26;20567;-68
2024/04/18 04:45:00;;;;;;;7.33;6.63;;;7.60;99.90;;;;;;5405296;26;20279;-68
2024/04/18 04:47:25;;;;;;;6.07;5.50;;;7.60;99.90;;;;;;5405130;26;20676;-68
2024/04/18 04:49:51;;;;;;;7.13;6.53;;;7.50;99.90;;;;;;5405767;26;20765;-70
2024/04/18 04:52:17;;;;;;;7.73;7.13;;;7.40;99.90;;;;;;5406002;26;20264;-67
2024/04/18 04:54:49;;;;;;;8.33;7.50;;;7.50;99.90;;;;;;5405546;26;20632;-68
2024/04/18 04:57:15;;;;;;;7.13;6.53;;;7.50;99.90;;;;;;5405367;26;20235;-67
2024/04/18 04:59:40;;;;;;;7.13;6.37;;;7.50;99.90;;;;;;5405820;26;20583;-68
2024/04/18 05:02:06;;;;;;;6.80;6.20;;;7.60;99.90;;;;;;5405621;26;20993;-67
2024/04/18 05:04:32;;;;;;;6.73;6.07;;;7.60;99.90;;;;;;5405505;26;20290;-67
2024/04/18 05:06:57;;;;;;;7.03;6.43;;;7.80;99.90;;;;;;5404716;26;20284;-67
2024/04/18 05:09:23;;;;;;;7.70;7.00;;;7.80;99.90;;;;;;5404361;26;20261;-68
2024/04/18 05:11:49;;;;;;;7.67;7.07;;;7.80;99.90;;;;;;5405536;26;20227;-68
2024/04/18 05:14:15;;;;;;;9.47;8.57;;;7.80;99.90;;;;;;5405283;26;20503;-68
2024/04/18 05:16:40;;;;;;;7.03;6.43;;;7.80;99.90;;;;;;5405206;26;20309;-69
2024/04/18 05:19:06;;;;;;;8.70;7.90;;;7.60;99.90;;;;;;5404231;26;20867;-67
2024/04/18 05:21:31;;;;;;;8.40;7.70;;;7.60;99.90;;;;;;5403376;26;20879;-68
2024/04/18 05:23:57;;;;;;;8.27;7.07;;;7.50;99.90;;;;;;5404883;26;20222;-68
2024/04/18 05:26:31;;;;;;;9.30;8.33;;;7.30;99.90;;;;;;5405137;26;20290;-68
2024/04/18 05:31:41;;;;;;;9.40;8.50;;;7.60;99.90;;;;;;5404968;26;20496;-68
2024/04/18 05:34:07;;;;;;;8.13;7.33;;;7.80;99.90;;;;;;5405083;26;20464;-67
2024/04/18 05:36:33;;;;;;;8.33;7.53;;;7.70;99.90;;;;;;5404756;26;20448;-68
2024/04/18 05:38:58;;;;;;;7.70;7.00;;;7.50;99.90;;;;;;5403372;26;20332;-68
2024/04/18 05:41:25;;;;;;;9.10;8.30;;;7.50;99.90;;;;;;5404903;26;20605;-69
2024/04/18 05:43:51;;;;;;;8.70;7.90;;;7.50;99.90;;;;;;5404695;26;20227;-68
2024/04/18 05:46:17;;;;;;;9.30;8.50;;;7.60;99.90;;;;;;5404530;26;20571;-68
2024/04/18 05:48:44;;;;;;;8.93;8.13;;;7.40;99.90;;;;;;5404451;26;20614;-69
2024/04/18 05:51:10;;;;;;;9.83;8.90;;;7.30;99.90;;;;;;5403963;26;20214;-68
2024/04/18 05:53:35;;;;;;;8.43;7.63;;;7.40;99.90;;;;;;5404749;26;20443;-69
2024/04/18 05:56:01;;;;;;;8.03;7.40;;;7.50;99.90;;;;;;5404087;26;20736;-69
2024/04/18 05:58:28;;;;;;;8.03;7.33;;;7.60;99.90;;;;;;5404411;26;20332;-68
2024/04/18 06:00:55;;;;;;;8.17;7.37;;;7.60;99.90;;;;;;5403608;26;20267;-69
2024/04/18 06:03:21;;;;;;;9.00;8.17;;;7.50;99.90;;;;;;5402680;26;20890;-68
2024/04/18 06:05:46;;;;;;;8.60;7.80;;;7.60;99.90;;;;;;5401901;26;20515;-68
2024/04/18 06:08:12;;;;;;;8.10;7.40;;;7.50;99.90;;;;;;5403729;26;20522;-68
2024/04/18 06:10:37;;;;;;;9.17;8.30;;;7.70;99.90;;;;;;5402829;26;20261;-68
2024/04/18 06:13:07;;;;;;;10.70;9.70;;;7.80;99.90;;;;;;5403546;26;20218;-68
2024/04/18 06:15:34;;;;;;;8.10;7.40;;;7.60;99.90;;;;;;5403829;26;20318;-66
2024/04/18 06:17:59;;;;;;;8.10;7.40;;;7.70;99.90;;;;;;5404512;26;20524;-67
2024/04/18 06:20:25;;;;;;;10.13;9.13;;;7.90;99.90;;;;;;5403516;26;20445;-68
2024/04/18 06:22:50;;;;;;;9.70;8.80;;;7.90;99.90;;;;;;5403558;26;20379;-67
2024/04/18 06:25:17;;;;;;;12.63;9.40;;;7.80;99.90;;;;;;5403521;26;20305;-68
2024/04/18 06:27:43;;;;;;;9.40;8.50;;;7.60;99.90;;;;;;5370099;26;20588;-68
2024/04/18 06:30:09;;;;;;;9.67;8.77;;;7.70;99.90;;;;;;5404443;26;20577;-69
2024/04/18 06:32:36;;;;;;;9.90;9.00;;;7.50;99.90;;;;;;5402449;26;21507;-67
2024/04/18 06:35:01;;;;;;;9.03;8.20;;;8.00;99.90;;;;;;5403659;26;20222;-69
2024/04/18 06:37:27;;;;;;;9.93;9.00;;;8.10;99.90;;;;;;5403549;26;21065;-66
2024/04/18 06:39:52;;;;;;;16.70;9.83;;;8.00;99.90;;;;;;5403472;26;20260;-67
2024/04/18 06:42:18;;;;;;;9.13;8.27;;;8.00;99.90;;;;;;5403113;26;20697;-66
2024/04/18 06:44:43;;;;;;;12.63;11.33;;;7.80;99.90;;;;;;5403419;26;20218;-67
2024/04/18 06:47:09;;;;;;;8.83;8.03;;;7.60;99.90;;;;;;5403556;26;20235;-66
2024/04/18 06:49:35;;;;;;;9.37;8.37;;;7.70;99.90;;;;;;5403912;26;20222;-67
2024/04/18 06:52:00;;;;;;;8.63;7.90;;;7.50;99.90;;;;;;5403402;26;20294;-68
2024/04/18 06:54:26;;;;;;;9.33;8.43;;;7.30;99.90;;;;;;5403786;26;20259;-70
2024/04/18 06:56:52;;;;;;;8.60;7.90;;;7.20;99.90;;;;;;5403811;26;20824;-72
2024/04/18 06:59:17;;;;;;;8.13;7.33;;;7.40;99.90;;;;;;5403409;26;20460;-74
2024/04/18 07:01:43;;;;;;;10.10;9.10;;;7.40;99.90;;;;;;5403433;26;20411;-69
2024/04/18 07:04:09;;;;;;;9.87;8.97;;;7.40;99.90;;;;;;5403735;26;20323;-70
2024/04/18 07:06:35;;;;;;;9.57;8.73;;;7.40;99.90;;;;;;5403384;26;21003;-71
2024/04/18 07:09:00;;;;;;;9.57;8.77;;;7.40;99.90;;;;;;5403196;26;20312;-70
2024/04/18 07:11:26;;;;;;;7.63;7.03;;;7.40;99.90;;;;;;5402865;26;20226;-73
2024/04/18 07:13:53;;;;;;;8.50;7.70;;;7.20;99.90;;;;;;5403257;26;20278;-71
2024/04/18 07:16:19;;;;;;;8.17;7.37;;;7.30;99.90;;;;;;5372080;26;20283;-70
2024/04/18 07:18:44;;;;;;;7.43;6.80;;;7.30;99.90;;;;;;5403345;26;20964;-70
2024/04/18 07:21:10;;;;;;;6.50;6.00;;;7.20;99.90;;;;;;5403438;26;20223;-71
2024/04/18 07:23:36;;;;;;;7.10;6.40;;;7.20;99.90;;;;;;5402824;26;20260;-71
2024/04/18 07:26:02;;;;;;;7.20;6.50;;;7.50;99.90;;;;;;5402834;26;20238;-72
2024/04/18 07:28:28;;;;;;;4.50;4.20;;;7.50;99.90;;;;;;5403345;26;20266;-72
2024/04/18 07:30:53;;;;;;;4.63;4.23;;;7.80;99.90;;;;;;5402473;26;21026;-72
2024/04/18 07:33:19;;;;;;;5.23;4.83;;;8.00;99.90;;;;;;5401333;26;20227;-70
2024/04/18 07:35:55;;;;;;;5.77;5.27;;;8.00;99.90;;;;;;5402549;26;20293;-69
2024/04/18 07:38:20;;;;;;;7.90;7.10;;;7.70;99.90;;;;;;5402740;26;20325;-68
2024/04/18 07:40:46;;;;;;;6.50;5.90;;;7.70;99.90;;;;;;5402967;26;20530;-69
2024/04/18 07:43:11;;;;;;;6.90;6.30;;;8.00;99.90;;;;;;5403029;26;21289;-68
2024/04/18 07:45:38;;;;;;;7.30;6.60;;;8.20;99.90;;;;;;5400599;26;20227;-72
2024/04/18 07:48:05;;;;;;;7.17;6.47;;;7.80;99.90;;;;;;5400239;26;20236;-70
2024/04/18 07:50:30;;;;;;;5.90;5.40;;;7.70;99.90;;;;;;5402366;26;20514;-70
2024/04/18 07:52:56;;;;;;;6.40;5.90;;;7.60;99.90;;;;;;5402247;26;20441;-70
2024/04/18 07:55:22;;;;;;;6.50;6.00;;;7.40;99.90;;;;;;5402734;26;20770;-68
2024/04/18 07:57:47;;;;;;;6.50;5.90;;;7.60;99.90;;;;;;5402403;26;20386;-67
2024/04/18 08:00:13;;;;;;;5.70;5.20;;;7.60;99.90;;;;;;5402481;26;21017;-70
2024/04/18 08:02:38;;;;;;;6.70;5.90;;;7.70;99.90;;;;;;5404231;26;20269;-72
2024/04/18 08:05:04;;;;;;;6.27;5.77;;;7.90;99.90;;;;;;5406399;26;20745;-71
2024/04/18 08:07:30;;;;;;;6.30;5.70;;;8.30;99.90;;;;;;5406443;26;20300;-70
2024/04/18 08:09:55;;;;;;;6.90;6.30;;;8.30;99.90;;;;;;5405763;26;20673;-70
2024/04/18 08:12:21;;;;;;;6.83;6.23;;;8.40;99.90;;;;;;5404348;26;20238;-67
2024/04/18 08:14:47;;;;;;;7.07;6.40;;;8.30;99.90;;;;;;5405697;26;20219;-73
2024/04/18 08:17:12;;;;;;;7.83;7.20;;;8.40;99.90;;;;;;5406276;26;20663;-73
2024/04/18 08:19:38;;;;;;;7.53;6.83;;;8.10;99.90;;;;;;5405784;26;20496;-71
2024/04/18 08:22:04;;;;;;;9.60;8.80;;;8.00;99.90;;;;;;5405807;26;20286;-72
2024/04/18 08:24:32;;;;;;;8.93;8.10;;;7.90;99.90;;;;;;5405914;26;20266;-71
2024/04/18 08:26:58;;;;;;;8.23;7.43;;;8.10;99.90;;;;;;5403997;26;20969;-70
2024/04/18 08:29:26;;;;;;;7.60;7.00;;;8.30;99.90;;;;;;5405864;26;20445;-69
2024/04/18 08:31:54;;;;;;;8.65;7.85;;;8.20;99.90;;;;;;5405647;26;21864;-69
2024/04/18 08:34:20;;;;;;;9.00;8.20;;;7.90;99.90;;;;;;5405961;26;20618;-71
2024/04/18 08:36:46;;;;;;;8.93;7.60;;;8.00;99.90;;;;;;5405841;26;20461;-68
2024/04/18 08:39:12;;;;;;;5.97;5.47;;;8.00;99.90;;;;;;5405412;26;20504;-69
2024/04/18 08:41:37;;;;;;;6.33;5.83;;;8.10;99.90;;;;;;5406027;26;20227;-70
2024/04/18 08:44:03;;;;;;;5.83;5.23;;;7.80;99.90;;;;;;5405731;26;20215;-72
2024/04/18 08:46:34;;;;;;;5.90;5.40;;;7.70;99.90;;;;;;5405763;26;21459;-70
2024/04/18 08:49:02;;;;;;;5.03;4.63;;;7.70;99.90;;;;;;5405282;26;20465;-69
2024/04/18 08:51:28;;;;;;;5.10;4.67;;;7.80;99.90;;;;;;5406045;26;20450;-71
2024/04/18 08:53:54;;;;;;;5.57;5.03;;;8.00;99.90;;;;;;5406270;26;20452;-69
2024/04/18 08:56:22;;;;;;;5.70;5.20;;;8.10;99.90;;;;;;5405050;26;20861;-70
2024/04/18 08:58:48;;;;;;;5.90;5.40;;;8.10;99.90;;;;;;5406133;26;20798;-71
2024/04/18 09:01:14;;;;;;;6.10;5.50;;;8.10;99.90;;;;;;5405024;26;20572;-70
2024/04/18 09:03:39;;;;;;;6.13;5.63;;;8.10;99.90;;;;;;5404913;26;20268;-70
2024/04/18 09:06:05;;;;;;;6.50;5.90;;;8.20;99.90;;;;;;5405676;26;20476;-70
2024/04/18 09:08:31;;;;;;;5.87;5.37;;;8.10;99.90;;;;;;5405036;26;20451;-69
2024/04/18 09:10:58;;;;;;;5.70;5.20;;;8.10;99.90;;;;;;5405296;26;20836;-70
2024/04/18 09:13:24;;;;;;;6.20;5.67;;;8.10;99.90;;;;;;5404156;26;20253;-70
2024/04/18 09:15:49;;;;;;;7.00;6.00;;;8.10;99.90;;;;;;5403620;26;20462;-70
2024/04/18 09:18:15;;;;;;;8.13;5.93;;;8.20;99.90;;;;;;5404939;26;20734;-69
2024/04/18 09:20:41;;;;;;;5.57;5.07;;;8.40;99.90;;;;;;5405045;26;20235;-69
2024/04/18 09:23:07;;;;;;;6.03;5.53;;;8.60;99.90;;;;;;5404629;26;20223;-69
2024/04/18 09:25:33;;;;;;;6.13;5.40;;;8.80;99.90;;;;;;5403923;26;20262;-70
2024/04/18 09:28:02;;;;;;;5.73;4.90;;;9.20;99.90;;;;;;5404837;26;21011;-70
2024/04/18 09:30:28;;;;;;;6.90;5.47;;;9.00;99.90;;;;;;5405005;26;20549;-71
2024/04/18 09:32:54;;;;;;;6.67;5.83;;;9.10;99.90;;;;;;5404547;26;20455;-68
2024/04/18 09:35:21;;;;;;;5.60;5.13;;;9.30;99.90;;;;;;5405192;26;20646;-69
2024/04/18 09:37:49;;;;;;;6.10;5.50;;;9.50;99.90;;;;;;5404691;26;20528;-73
2024/04/18 09:40:18;;;;;;;5.67;5.27;;;10.00;99.90;;;;;;5404356;26;20702;-70
2024/04/18 09:42:53;;;;;;;6.13;5.50;;;10.20;99.90;;;;;;5403988;26;20503;-71
2024/04/18 09:45:20;;;;;;;6.37;5.77;;;10.40;99.90;;;;;;5404131;26;20447;-69
2024/04/18 09:47:47;;;;;;;6.20;5.70;;;10.70;99.90;;;;;;5403427;26;20457;-70
2024/04/18 09:50:14;;;;;;;6.90;5.70;;;10.70;99.90;;;;;;5404090;26;20441;-74
2024/04/18 09:52:44;;;;;;;6.22;5.22;;;11.00;99.90;;;;;;5402764;26;20401;-69
2024/04/18 09:55:13;;;;;;;6.03;5.50;;;10.80;99.90;;;;;;5404437;26;20551;-69
2024/04/18 09:57:42;;;;;;;6.33;5.60;;;10.80;99.90;;;;;;5404388;26;21000;-69
2024/04/18 10:00:10;;;;;;;6.70;4.63;;;10.30;99.90;;;;;;5404495;26;20513;-70
2024/04/18 10:02:37;;;;;;;5.07;4.60;;;10.20;99.90;;;;;;5404294;26;20836;-69
2024/04/18 10:05:03;;;;;;;4.90;4.40;;;10.30;99.90;;;;;;5404516;26;20493;-70
2024/04/18 10:07:30;;;;;;;5.27;4.77;;;10.10;99.90;;;;;;5404086;26;20958;-70
2024/04/18 10:09:56;;;;;;;6.00;4.30;;;10.40;99.90;;;;;;5404560;26;20983;-70
2024/04/18 10:12:30;;;;;;;4.70;4.30;;;10.80;99.90;;;;;;5404601;26;20446;-70
2024/04/18 10:14:56;;;;;;;5.07;4.17;;;10.90;99.90;;;;;;5404276;26;21585;-69
2024/04/18 10:17:24;;;;;;;5.43;4.93;;;10.90;99.90;;;;;;5404393;26;20519;-70
2024/04/18 10:19:52;;;;;;;3.70;3.40;;;10.50;99.90;;;;;;5404114;26;20478;-68
2024/04/18 10:22:18;;;;;;;3.43;2.20;;;9.70;99.90;;;;;;5401930;26;20458;-70
2024/04/18 10:24:49;;;;;;;2.60;2.40;;;8.80;99.90;;;;;;5403969;26;20436;-68
2024/04/18 10:27:18;;;;;;;2.70;1.90;;;7.90;99.90;;;;;;5403758;26;20236;-69
2024/04/18 10:30:16;;;;;;;2.30;2.10;;;7.40;99.90;;;;;;5404025;26;21005;-71
2024/04/18 10:32:43;;;;;;;3.70;3.20;;;7.20;99.90;;;;;;5379067;26;20352;-68
2024/04/18 10:35:10;;;;;;;3.00;2.70;;;7.30;99.90;;;;;;5401518;26;20356;-68
2024/04/18 10:37:36;;;;;;;4.40;3.17;;;7.20;99.90;;;;;;5403462;26;20226;-70
2024/04/18 10:40:03;;;;;;;5.27;3.50;;;7.00;99.90;;;;;;5404066;26;20551;-73
2024/04/18 10:42:35;;;;;;;3.97;3.43;;;7.00;99.90;;;;;;5403810;26;20218;-72
2024/04/18 10:45:01;;;;;;;5.30;4.17;;;7.10;99.90;;;;;;5402911;26;20531;-71
2024/04/18 10:47:27;;;;;;;4.17;3.77;;;7.30;99.90;;;;;;5403264;26;20513;-73
2024/04/18 10:49:53;;;;;;;3.77;3.40;;;7.40;99.90;;;;;;5403837;26;20431;-73
2024/04/18 10:52:19;;;;;;;3.73;3.30;;;7.60;99.90;;;;;;5404202;26;20261;-75
2024/04/18 10:54:47;;;;;;;4.10;3.13;;;7.90;99.90;;;;;;5403809;26;20879;-73
2024/04/18 10:57:13;;;;;;;3.67;3.10;;;8.20;99.90;;;;;;5403739;26;20644;-75
2024/04/18 10:59:43;;;;;;;2.90;2.70;;;8.30;99.90;;;;;;5403425;26;20473;-73
2024/04/18 11:02:10;;;;;;;3.67;3.37;;;8.50;99.90;;;;;;5403228;26;20757;-72
2024/04/18 11:04:36;;;;;;;2.73;2.53;;;8.90;99.90;;;;;;5403718;26;20502;-73
2024/04/18 11:07:02;;;;;;;3.90;3.53;;;9.20;99.90;;;;;;5403030;26;20454;-73
2024/04/18 11:09:28;;;;;;;4.93;2.90;;;9.30;99.90;;;;;;5403203;26;20494;-71
2024/04/18 11:11:54;;;;;;;3.50;3.20;;;9.30;99.90;;;;;;5403175;26;20439;-73
2024/04/18 11:14:25;;;;;;;3.77;3.37;;;9.30;99.90;;;;;;5401144;26;20484;-73
2024/04/18 11:17:00;;;;;;;3.37;3.07;;;9.70;99.90;;;;;;5402286;26;20462;-73
2024/04/18 11:19:27;;;;;;;3.37;3.07;;;10.20;99.90;;;;;;5403065;26;20463;-72
2024/04/18 11:21:52;;;;;;;4.00;3.60;;;11.00;99.90;;;;;;5403023;26;20776;-73
2024/04/18 11:24:18;;;;;;;4.43;2.97;;;12.60;99.90;;;;;;5402638;26;20504;-72
2024/04/18 11:26:43;;;;;;;4.30;3.53;;;14.80;99.90;;;;;;5401905;26;20459;-71
2024/04/18 11:29:09;;;;;;;5.10;4.17;;;15.80;99.90;;;;;;5402950;26;20515;-72
2024/04/18 11:31:35;;;;;;;4.40;4.03;;;16.90;99.90;;;;;;5403266;26;20250;-73
2024/04/18 11:34:00;;;;;;;5.30;4.90;;;17.80;97.30;;;;;;5403225;26;20351;-70
2024/04/18 11:36:27;;;;;;;5.00;4.57;;;17.10;98.10;;;;;;5402865;26;20287;-72
2024/04/18 11:38:59;;;;;;;3.90;3.60;;;17.20;95.80;;;;;;5405326;26;20453;-71
2024/04/18 11:41:27;;;;;;;4.63;4.23;;;17.60;97.20;;;;;;5406142;26;20498;-73
2024/04/18 11:43:53;;;;;;;5.17;4.67;;;18.40;95.10;;;;;;5405836;26;20535;-72
2024/04/18 11:46:18;;;;;;;4.60;4.20;;;17.60;94.80;;;;;;5404153;26;20458;-73
2024/04/18 11:48:44;;;;;;;4.73;4.33;;;16.70;97.40;;;;;;5405839;26;20220;-72
2024/04/18 11:51:09;;;;;;;5.70;4.83;;;15.00;96.70;;;;;;5406323;26;20811;-71
2024/04/18 11:53:35;;;;;;;4.87;4.47;;;13.80;99.60;;;;;;5405646;26;20741;-72
2024/04/18 11:56:01;;;;;;;4.87;4.47;;;13.50;99.90;;;;;;5405945;26;20799;-71
2024/04/18 11:58:26;;;;;;;5.40;4.20;;;12.30;99.90;;;;;;5405976;26;20267;-71
2024/04/18 12:00:52;;;;;;;4.30;3.90;;;10.60;99.90;;;;;;5406045;26;20655;-72
2024/04/18 12:03:19;;;;;;;4.80;4.10;;;9.20;99.90;;;;;;5405862;26;20709;-72
2024/04/18 12:05:45;;;;;;;3.30;3.10;;;9.00;99.90;;;;;;5405696;26;20306;-72
2024/04/18 12:08:11;;;;;;;2.77;2.50;;;8.90;99.90;;;;;;5406268;26;20496;-72
2024/04/18 12:10:36;;;;;;;3.20;2.90;;;9.00;99.90;;;;;;5406066;26;20453;-73
2024/04/18 12:13:02;;;;;;;3.07;2.87;;;8.90;99.90;;;;;;5405567;26;20318;-73
2024/04/18 12:15:29;;;;;;;4.73;3.70;;;8.90;99.90;;;;;;5405259;26;20223;-72
2024/04/18 12:17:55;;;;;;;5.10;4.17;;;9.00;99.90;;;;;;5405030;26;20925;-72
2024/04/18 12:20:22;;;;;;;4.20;3.80;;;9.10;99.90;;;;;;5405450;26;20445;-73
2024/04/18 12:22:47;;;;;;;5.17;4.67;;;9.40;99.90;;;;;;5404732;26;20263;-71
2024/04/18 12:25:17;;;;;;;5.70;5.10;;;9.20;99.90;;;;;;5405332;26;20882;-71
2024/04/18 12:27:43;;;;;;;6.37;5.77;;;8.90;99.90;;;;;;5403508;26;20324;-72
2024/04/18 12:30:09;;;;;;;6.17;5.67;;;8.90;99.90;;;;;;5405269;26;20452;-71
2024/04/18 12:32:35;;;;;;;7.40;6.07;;;9.10;99.90;;;;;;5405600;26;20512;-73
2024/04/18 12:35:00;;;;;;;7.97;6.30;;;9.30;99.90;;;;;;5405294;26;20511;-72
2024/04/18 12:37:26;;;;;;;5.90;5.30;;;9.40;99.90;;;;;;5405064;26;20808;-72
2024/04/18 12:39:51;;;;;;;7.67;6.70;;;9.70;99.90;;;;;;5405135;26;20691;-72
2024/04/18 12:42:18;;;;;;;6.33;5.83;;;9.70;99.90;;;;;;5405167;26;21225;-68
2024/04/18 12:44:44;;;;;;;6.63;5.37;;;9.50;99.90;;;;;;5405960;26;20816;-69
2024/04/18 12:47:10;;;;;;;5.53;5.03;;;9.60;99.90;;;;;;5405876;26;20858;-69
2024/04/18 12:49:35;;;;;;;7.03;6.43;;;10.80;99.90;;;;;;5404989;26;20473;-71
2024/04/18 12:52:01;;;;;;;7.37;5.27;;;11.60;99.90;;;;;;5405595;26;20264;-71
2024/04/18 12:54:26;;;;;;;6.13;5.10;;;13.60;99.90;;;;;;5405264;26;20329;-72
2024/04/18 12:56:53;;;;;;;4.70;4.30;;;16.20;99.90;;;;;;5404711;26;20240;-72